| time (UTC) | temp C | wind direction | speed KPH | gust KPH | rain 1hr cm | rain 24hr cm | rain mn cm | humidity % | barometer mb |
| 20260508004537 | 13 | 328 | 4.8 | 9.7 | 0.00 | 0.00 | 0.00 | 77 | 1012.2 |
| 20260508003026 | 13 | 306 | 3.2 | 9.7 | 0.00 | 0.00 | 0.00 | 77 | 1012.4 |
| 20260508001529 | 12 | 323 | 3.2 | 6.4 | 0.00 | 0.00 | 0.00 | 78 | 1012.5 |
| 20260508000024 | 12 | 323 | 0.0 | 0.0 | 0.00 | 0.00 | 0.00 | 80 | 1012.6 |
| 20260507234531 | 12 | 323 | 0.0 | 0.0 | 0.00 | 0.00 | 0.00 | 80 | 1012.7 |
| 20260507233026 | 12 | 323 | 0.0 | 0.0 | 0.00 | 0.00 | 0.00 | 79 | 1012.7 |
| 20260507231520 | 13 | 323 | 0.0 | 0.0 | 0.00 | 0.00 | 0.00 | 79 | 1012.6 |
| 20260507230018 | 13 | 323 | 1.6 | 4.8 | 0.00 | 0.00 | 0.00 | 79 | 1012.5 |
| 20260507224522 | 13 | 323 | 1.6 | 6.4 | 0.00 | 0.00 | 0.00 | 79 | 1012.5 |
| 20260507223017 | 13 | 335 | 1.6 | 3.2 | 0.00 | 0.00 | 0.00 | 80 | 1012.5 |
| 20260507221517 | 13 | 335 | 1.6 | 6.4 | 0.00 | 0.00 | 0.00 | 80 | 1012.4 |
| 20260507220012 | 13 | 335 | 3.2 | 6.4 | 0.00 | 0.00 | 0.00 | 81 | 1012.3 |
| 20260507214519 | 13 | 300 | 0.0 | 6.4 | 0.00 | 0.00 | 0.00 | 81 | 1012.3 |
| 20260507213012 | 13 | 128 | 0.0 | 1.6 | 0.00 | 0.00 | 0.00 | 81 | 1012.3 |
| 20260507211511 | 13 | 88 | 1.6 | 8.0 | 0.00 | 0.00 | 0.00 | 79 | 1012.1 |
| 20260507210008 | 14 | 162 | 0.0 | 3.2 | 0.00 | 0.00 | 0.00 | 77 | 1011.9 |
| 20260507204508 | 14 | 316 | 1.6 | 3.2 | 0.00 | 0.00 | 0.00 | 76 | 1011.8 |
| 20260507203008 | 14 | 82 | 0.0 | 1.6 | 0.00 | 0.00 | 0.00 | 75 | 1011.7 |
| 20260507201512 | 14 | 82 | 0.0 | 4.8 | 0.00 | 0.00 | 0.00 | 74 | 1011.6 |
| 20260507200007 | 15 | 82 | 0.0 | 1.6 | 0.00 | 0.00 | 0.00 | 74 | 1011.7 |
| 20260507194506 | 15 | 82 | 0.0 | 6.4 | 0.00 | 0.00 | 0.00 | 72 | 1011.5 |
| 20260507193005 | 15 | 105 | 1.6 | 8.0 | 0.00 | 0.00 | 0.00 | 72 | 1011.1 |
| 20260507191507 | 15 | 90 | 1.6 | 6.4 | 0.00 | 0.00 | 0.00 | 70 | 1010.8 |
| 20260507190005 | 15 | 82 | 1.6 | 4.8 | 0.00 | 0.00 | 0.00 | 68 | 1010.6 |
| 20260507184503 | 16 | 128 | 3.2 | 9.7 | 0.00 | 0.00 | 0.00 | 67 | 1010.5 |
| 20260507183003 | 16 | 140 | 0.0 | 8.0 | 0.00 | 0.00 | 0.00 | 66 | 1010.4 |
| 20260507181502 | 17 | 140 | 0.0 | 0.0 | 0.00 | 0.00 | 0.00 | 65 | 1010.2 |
| 20260507180001 | 17 | 140 | 0.0 | 3.2 | 0.00 | 0.00 | 0.00 | 64 | 1010.1 |
| 20260507174503 | 18 | 140 | 1.6 | 6.4 | 0.00 | 0.00 | 0.00 | 64 | 1010.0 |
| 20260507173100 | 18 | 159 | 3.2 | 8.0 | 0.00 | 0.00 | 0.00 | 63 | 1009.9 |
| 20260507171621 | 18 | 157 | 3.2 | 9.7 | 0.00 | 0.00 | 0.00 | 60 | 1009.9 |
| 20260507164558 | 20 | 130 | 6.4 | 12.9 | 0.00 | 0.00 | 0.00 | 56 | 1009.7 |
| 20260507163058 | 20 | 147 | 6.4 | 12.9 | 0.00 | 0.00 | 0.00 | 57 | 1009.7 |
| 20260507161558 | 20 | 134 | 8.0 | 16.1 | 0.00 | 0.00 | 0.00 | 55 | 1009.6 |
| 20260507160115 | 20 | 145 | 8.0 | 16.1 | 0.00 | 0.00 | 0.00 | 56 | 1009.6 |
| 20260507154555 | 20 | 133 | 9.7 | 14.5 | 0.00 | 0.03 | 0.00 | 57 | 1009.6 |
| 20260507153053 | 20 | 142 | 8.0 | 16.1 | 0.00 | 0.03 | 0.00 | 56 | 1009.6 |
| 20260507151558 | 20 | 134 | 8.0 | 17.7 | 0.00 | 0.03 | 0.00 | 55 | 1009.7 |
| 20260507150052 | 21 | 142 | 8.0 | 20.9 | 0.00 | 0.03 | 0.00 | 55 | 1009.8 |
| 20260507144551 | 21 | 161 | 8.0 | 17.7 | 0.00 | 0.03 | 0.00 | 58 | 1009.8 |
| 20260507143054 | 20 | 124 | 9.7 | 22.5 | 0.00 | 0.03 | 0.00 | 57 | 1010.0 |
| 20260507141548 | 19 | 163 | 6.4 | 19.3 | 0.00 | 0.03 | 0.00 | 59 | 1010.0 |
| 20260507140057 | 20 | 111 | 11.3 | 20.9 | 0.00 | 0.03 | 0.00 | 55 | 1010.0 |
| 20260507134547 | 21 | 175 | 14.5 | 24.1 | 0.00 | 0.03 | 0.00 | 55 | 1010.2 |
| 20260507133046 | 21 | 142 | 11.3 | 20.9 | 0.00 | 0.03 | 0.00 | 55 | 1010.3 |
| 20260507131609 | 21 | 171 | 9.7 | 22.5 | 0.00 | 0.03 | 0.00 | 60 | 1010.4 |
| 20260507130042 | 20 | 165 | 9.7 | 17.7 | 0.00 | 0.03 | 0.00 | 60 | 1010.5 |
| 20260507124550 | 20 | 156 | 12.9 | 22.5 | 0.00 | 0.03 | 0.00 | 59 | 1010.7 |
| 20260507123044 | 20 | 162 | 12.9 | 19.3 | 0.00 | 0.03 | 0.00 | 56 | 1010.7 |
| 20260507121541 | 19 | 173 | 11.3 | 22.5 | 0.00 | 0.03 | 0.00 | 62 | 1010.8 |
| 20260507120042 | 18 | 119 | 9.7 | 19.3 | 0.00 | 0.03 | 0.00 | 60 | 1011.0 |
| 20260507114538 | 20 | 148 | 11.3 | 22.5 | 0.00 | 0.03 | 0.00 | 57 | 1011.1 |
| 20260507113101 | 20 | 136 | 11.3 | 25.7 | 0.00 | 0.03 | 0.00 | 60 | 1011.1 |
| 20260507111534 | 20 | 126 | 12.9 | 24.1 | 0.00 | 0.03 | 0.00 | 58 | 1011.2 |
| 20260507110038 | 20 | 155 | 14.5 | 22.5 | 0.00 | 0.03 | 0.00 | 58 | 1011.4 |
| 20260507104532 | 20 | 134 | 11.3 | 19.3 | 0.00 | 0.03 | 0.00 | 59 | 1011.4 |
| 20260507103028 | 19 | 171 | 11.3 | 19.3 | 0.00 | 0.03 | 0.00 | 63 | 1011.6 |
| 20260507101530 | 18 | 137 | 12.9 | 20.9 | 0.00 | 0.03 | 0.00 | 61 | 1011.7 |
| 20260507100038 | 18 | 147 | 8.0 | 20.9 | 0.00 | 0.03 | 0.00 | 64 | 1011.8 |
| 20260507094523 | 18 | 111 | 8.0 | 17.7 | 0.00 | 0.76 | 0.00 | 65 | 1011.9 |
| 20260507093027 | 18 | 161 | 12.9 | 22.5 | 0.00 | 0.76 | 0.00 | 65 | 1011.9 |
| 20260507091521 | 18 | 154 | 9.7 | 20.9 | 0.00 | 0.76 | 0.00 | 66 | 1011.8 |
| 20260507090017 | 17 | 109 | 9.7 | 19.3 | 0.00 | 0.76 | 0.00 | 66 | 1011.8 |
| 20260507084535 | 17 | 134 | 6.4 | 16.1 | 0.00 | 2.49 | 0.00 | 65 | 1011.8 |
| 20260507083020 | 17 | 112 | 8.0 | 16.1 | 0.00 | 2.49 | 0.00 | 67 | 1011.8 |
| 20260507081507 | 16 | 139 | 4.8 | 12.9 | 0.00 | 2.49 | 0.00 | 63 | 1011.9 |
| 20260507080003 | 15 | 279 | 0.0 | 6.4 | 0.00 | 2.49 | 0.00 | 63 | 1011.9 |
| 20260507074600 | 14 | 243 | 1.6 | 6.4 | 0.00 | 4.17 | 0.00 | 61 | 1011.8 |
| 20260507073059 | 13 | 307 | 3.2 | 9.7 | 0.00 | 4.17 | 0.00 | 64 | 1011.9 |
| 20260507071554 | 13 | 13 | 1.6 | 9.7 | 0.00 | 4.17 | 0.00 | 65 | 1011.9 |
| 20260507064547 | 11 | 344 | 4.8 | 9.7 | 0.00 | 4.85 | 0.00 | 70 | 1011.9 |
| 20260507063050 | 10 | 355 | 1.6 | 6.4 | 0.00 | 4.85 | 0.00 | 78 | 1011.8 |
| 20260507061542 | 8 | 291 | 3.2 | 6.4 | 0.00 | 4.85 | 0.00 | 79 | 1011.8 |
| 20260507060043 | 8 | 327 | 3.2 | 11.3 | 0.00 | 4.85 | 0.00 | 79 | 1011.7 |
| 20260507054541 | 8 | 321 | 4.8 | 9.7 | 0.00 | 5.23 | 0.00 | 79 | 1011.6 |
| 20260507053038 | 8 | 309 | 6.4 | 12.9 | 0.00 | 5.23 | 0.00 | 80 | 1011.5 |
| 20260507051534 | 8 | 324 | 3.2 | 6.4 | 0.00 | 5.23 | 0.00 | 81 | 1011.4 |
| 20260507050052 | 8 | 299 | 3.2 | 8.0 | 0.00 | 5.23 | 0.00 | 81 | 1011.2 |
| 20260507044536 | 8 | 345 | 3.2 | 6.4 | 0.00 | 5.59 | 0.00 | 81 | 1011.1 |
| 20260507043026 | 8 | 299 | 1.6 | 8.0 | 0.00 | 5.59 | 0.00 | 81 | 1010.8 |
| 20260507041526 | 8 | 350 | 0.0 | 6.4 | 0.00 | 5.59 | 0.00 | 80 | 1010.6 |
| 20260507040024 | 8 | 35 | 1.6 | 4.8 | 0.00 | 5.59 | 0.00 | 81 | 1010.5 |
| 20260507034620 | 8 | 285 | 0.0 | 3.2 | 0.00 | 5.61 | 0.00 | 80 | 1010.5 |
| 20260507033029 | 8 | 355 | 0.0 | 6.4 | 0.00 | 5.61 | 0.00 | 80 | 1010.4 |
| 20260507031518 | 9 | 317 | 6.4 | 11.3 | 0.00 | 5.61 | 0.00 | 80 | 1010.4 |
| 20260507030016 | 9 | 351 | 6.4 | 11.3 | 0.00 | 5.61 | 0.00 | 80 | 1010.4 |
| 20260507024518 | 9 | 333 | 4.8 | 9.7 | 0.00 | 5.61 | 0.00 | 80 | 1010.3 |
| 20260507023014 | 9 | 319 | 4.8 | 9.7 | 0.00 | 5.61 | 0.00 | 81 | 1010.3 |
| 20260507021519 | 9 | 336 | 1.6 | 6.4 | 0.00 | 5.61 | 0.00 | 81 | 1010.3 |
| 20260507020020 | 9 | 317 | 3.2 | 8.0 | 0.00 | 5.61 | 0.00 | 82 | 1010.3 |
| 20260507014507 | 9 | 271 | 1.6 | 6.4 | 0.00 | 5.66 | 0.00 | 81 | 1010.2 |
| 20260507013008 | 10 | 279 | 1.6 | 4.8 | 0.00 | 5.66 | 0.00 | 80 | 1010.2 |
| 20260507011513 | 10 | 307 | 3.2 | 6.4 | 0.00 | 5.66 | 0.00 | 81 | 1010.2 |